CheckWX is a tool to help pilots better visualize weather data.  It is not intended as a substitute for an official pre-flight weather briefing.

11:16:50 UTC

SBCF TAF
Tancredo Neves International Airport
Belo Horizonte, Brazil
TAF SBCF 150400Z 1506/1606 13005KT CAVOK TN17/1509Z TX31/1518Z BECMG 1511/1513 09010KT 9999 FEW035 BECMG 1517/1519 07008KT CAVOK BECMG 1523/1601 14005KT RMK PFY

Oct-15@
06:00 UTC

Oct-15 @ 06:00 UTC

Oct-15@
11:00 UTC

Oct-15 @ 11:00 UTC

TAF SBCF 150400Z 1506/1606 13005KT CAVOK TN17/1509Z TX31/1518Z

Expired

Wind
  • 130° at 5 KTS
Cloud Levels
  • No significant clouds

Oct-15@
11:00 UTC

Oct-15 @ 11:00 UTC

Oct-15@
17:00 UTC

Oct-15 @ 17:00 UTC

BECMG 1511/1513 09010KT 9999 FEW035

Becoming

Becoming Conditions expected by Tue, Oct 15, 2019 @ 13:00 UTC

Wind
  • 090° at 10 KTS
Cloud Levels
  • Few at 3,500' AGL

Oct-15@
17:00 UTC

Oct-15 @ 17:00 UTC

Oct-15@
23:00 UTC

Oct-15 @ 23:00 UTC

BECMG 1517/1519 07008KT CAVOK

Becoming

Becoming Conditions expected by Tue, Oct 15, 2019 @ 19:00 UTC

Wind
  • 070° at 8 KTS
Conditions
No significant weather
Cloud Levels
  • No significant clouds

Oct-15@
23:00 UTC

Oct-15 @ 23:00 UTC

Oct-16@
06:00 UTC

Oct-16 @ 06:00 UTC

BECMG 1523/1601 14005KT RMK PFY

Becoming

Becoming Conditions expected by Wed, Oct 16, 2019 @ 01:00 UTC

Wind
  • 140° at 5 KTS
Conditions
No significant weather
Cloud Levels
  • No significant clouds